sensor_id;sensor_type;location;lat;lon;timestamp;temperature;humidity
65766;SHT31;52915;53.718;19.946;2023-07-20T00:00:38;14.58;82.26
65766;SHT31;52915;53.718;19.946;2023-07-20T00:06:02;14.54;82.35
65766;SHT31;52915;53.718;19.946;2023-07-20T00:11:08;14.54;82.32
65766;SHT31;52915;53.718;19.946;2023-07-20T00:16:12;14.58;82.52
65766;SHT31;52915;53.718;19.946;2023-07-20T00:21:17;14.64;82.39
65766;SHT31;52915;53.718;19.946;2023-07-20T00:26:21;14.65;82.48
65766;SHT31;52915;53.718;19.946;2023-07-20T00:31:25;14.61;82.36
65766;SHT31;52915;53.718;19.946;2023-07-20T00:36:30;14.52;82.11
65766;SHT31;52915;53.718;19.946;2023-07-20T00:41:34;14.43;82.00
65766;SHT31;52915;53.718;19.946;2023-07-20T00:46:39;14.27;82.07
65766;SHT31;52915;53.718;19.946;2023-07-20T00:51:45;14.23;82.32
65766;SHT31;52915;53.718;19.946;2023-07-20T00:56:49;14.35;82.31
65766;SHT31;52915;53.718;19.946;2023-07-20T01:01:57;14.40;82.36
65766;SHT31;52915;53.718;19.946;2023-07-20T01:07:35;14.37;82.58
65766;SHT31;52915;53.718;19.946;2023-07-20T01:12:47;14.30;82.79
65766;SHT31;52915;53.718;19.946;2023-07-20T01:17:58;14.29;82.83
65766;SHT31;52915;53.718;19.946;2023-07-20T01:34:19;14.15;83.20
65766;SHT31;52915;53.718;19.946;2023-07-20T01:39:27;14.15;83.28
65766;SHT31;52915;53.718;19.946;2023-07-20T01:44:31;14.21;83.30
65766;SHT31;52915;53.718;19.946;2023-07-20T01:49:36;14.20;83.34
65766;SHT31;52915;53.718;19.946;2023-07-20T01:54:40;14.23;83.19
65766;SHT31;52915;53.718;19.946;2023-07-20T01:59:44;14.16;83.31
65766;SHT31;52915;53.718;19.946;2023-07-20T02:04:48;14.11;83.46
65766;SHT31;52915;53.718;19.946;2023-07-20T02:09:53;14.08;83.32
65766;SHT31;52915;53.718;19.946;2023-07-20T02:14:57;14.00;83.47
65766;SHT31;52915;53.718;19.946;2023-07-20T02:20:02;13.92;83.54
65766;SHT31;52915;53.718;19.946;2023-07-20T02:25:06;13.91;83.38
65766;SHT31;52915;53.718;19.946;2023-07-20T02:30:11;13.93;83.40
65766;SHT31;52915;53.718;19.946;2023-07-20T02:35:16;13.76;83.57
65766;SHT31;52915;53.718;19.946;2023-07-20T02:40:20;13.66;83.93
65766;SHT31;52915;53.718;19.946;2023-07-20T02:45:24;13.67;83.92
65766;SHT31;52915;53.718;19.946;2023-07-20T02:50:29;13.61;83.98
65766;SHT31;52915;53.718;19.946;2023-07-20T02:55:33;13.46;84.60
65766;SHT31;52915;53.718;19.946;2023-07-20T03:00:37;13.39;85.01
65766;SHT31;52915;53.718;19.946;2023-07-20T03:05:41;13.45;84.98
65766;SHT31;52915;53.718;19.946;2023-07-20T03:10:46;13.52;84.88
65766;SHT31;52915;53.718;19.946;2023-07-20T03:15:51;13.61;84.70
65766;SHT31;52915;53.718;19.946;2023-07-20T03:20:57;13.67;84.44
65766;SHT31;52915;53.718;19.946;2023-07-20T03:26:01;13.72;84.24
65766;SHT31;52915;53.718;19.946;2023-07-20T03:31:05;13.81;84.08
65766;SHT31;52915;53.718;19.946;2023-07-20T03:36:10;13.89;83.78
65766;SHT31;52915;53.718;19.946;2023-07-20T03:41:14;13.84;83.90
65766;SHT31;52915;53.718;19.946;2023-07-20T03:46:19;13.89;83.93
65766;SHT31;52915;53.718;19.946;2023-07-20T03:51:25;13.93;83.94
65766;SHT31;52915;53.718;19.946;2023-07-20T03:56:30;13.95;84.07
65766;SHT31;52915;53.718;19.946;2023-07-20T04:01:38;14.03;84.01
65766;SHT31;52915;53.718;19.946;2023-07-20T04:06:43;14.07;84.13
65766;SHT31;52915;53.718;19.946;2023-07-20T04:11:47;14.16;84.09
65766;SHT31;52915;53.718;19.946;2023-07-20T04:16:52;14.32;83.91
65766;SHT31;52915;53.718;19.946;2023-07-20T04:21:56;14.47;83.78
65766;SHT31;52915;53.718;19.946;2023-07-20T04:27:00;14.62;83.62
65766;SHT31;52915;53.718;19.946;2023-07-20T04:32:05;14.77;83.06
65766;SHT31;52915;53.718;19.946;2023-07-20T04:37:10;14.83;82.76
65766;SHT31;52915;53.718;19.946;2023-07-20T04:42:18;14.88;82.69
65766;SHT31;52915;53.718;19.946;2023-07-20T04:47:31;14.77;82.93
65766;SHT31;52915;53.718;19.946;2023-07-20T04:52:35;14.73;83.34
65766;SHT31;52915;53.718;19.946;2023-07-20T04:57:44;14.73;83.68
65766;SHT31;52915;53.718;19.946;2023-07-20T05:02:50;14.79;83.32
65766;SHT31;52915;53.718;19.946;2023-07-20T05:07:55;14.87;83.08
65766;SHT31;52915;53.718;19.946;2023-07-20T05:12:59;14.99;82.64
65766;SHT31;52915;53.718;19.946;2023-07-20T05:18:03;15.13;82.39
65766;SHT31;52915;53.718;19.946;2023-07-20T05:23:08;15.31;82.06
65766;SHT31;52915;53.718;19.946;2023-07-20T05:28:12;15.43;81.78
65766;SHT31;52915;53.718;19.946;2023-07-20T05:33:17;15.64;81.33
65766;SHT31;52915;53.718;19.946;2023-07-20T05:38:22;15.71;81.15
65766;SHT31;52915;53.718;19.946;2023-07-20T05:43:27;15.73;81.06
65766;SHT31;52915;53.718;19.946;2023-07-20T05:48:31;15.58;81.02
65766;SHT31;52915;53.718;19.946;2023-07-20T05:53:36;15.66;81.06
65766;SHT31;52915;53.718;19.946;2023-07-20T05:58:41;15.89;80.75
65766;SHT31;52915;53.718;19.946;2023-07-20T06:03:46;16.07;80.03
65766;SHT31;52915;53.718;19.946;2023-07-20T06:08:50;16.28;79.81
65766;SHT31;52915;53.718;19.946;2023-07-20T06:13:55;16.60;79.07
65766;SHT31;52915;53.718;19.946;2023-07-20T06:19:00;16.65;78.67
65766;SHT31;52915;53.718;19.946;2023-07-20T06:24:04;16.61;78.70
65766;SHT31;52915;53.718;19.946;2023-07-20T06:29:09;16.89;78.39
65766;SHT31;52915;53.718;19.946;2023-07-20T06:34:13;17.12;77.51
65766;SHT31;52915;53.718;19.946;2023-07-20T06:39:18;17.19;77.20
65766;SHT31;52915;53.718;19.946;2023-07-20T06:44:25;17.32;77.39
65766;SHT31;52915;53.718;19.946;2023-07-20T06:49:30;17.45;76.90
65766;SHT31;52915;53.718;19.946;2023-07-20T06:54:34;18.00;76.24
65766;SHT31;52915;53.718;19.946;2023-07-20T06:59:39;18.32;75.14
65766;SHT31;52915;53.718;19.946;2023-07-20T07:04:44;18.46;74.60
65766;SHT31;52915;53.718;19.946;2023-07-20T07:09:50;18.59;74.49
65766;SHT31;52915;53.718;19.946;2023-07-20T07:14:55;18.85;73.90
65766;SHT31;52915;53.718;19.946;2023-07-20T07:19:59;19.10;72.86
65766;SHT31;52915;53.718;19.946;2023-07-20T07:25:04;19.28;72.49
65766;SHT31;52915;53.718;19.946;2023-07-20T07:30:11;19.49;70.50
65766;SHT31;52915;53.718;19.946;2023-07-20T07:35:16;19.65;69.81
65766;SHT31;52915;53.718;19.946;2023-07-20T07:40:20;19.66;67.79
65766;SHT31;52915;53.718;19.946;2023-07-20T07:45:25;19.79;66.96
65766;SHT31;52915;53.718;19.946;2023-07-20T07:50:30;20.11;65.85
65766;SHT31;52915;53.718;19.946;2023-07-20T07:55:35;20.47;65.31
65766;SHT31;52915;53.718;19.946;2023-07-20T08:00:39;20.99;63.81
65766;SHT31;52915;53.718;19.946;2023-07-20T08:05:44;21.31;62.08
65766;SHT31;52915;53.718;19.946;2023-07-20T08:10:48;21.75;61.99
65766;SHT31;52915;53.718;19.946;2023-07-20T08:15:52;21.94;59.94
65766;SHT31;52915;53.718;19.946;2023-07-20T08:20:57;21.68;58.03
65766;SHT31;52915;53.718;19.946;2023-07-20T08:26:01;21.15;60.88
65766;SHT31;52915;53.718;19.946;2023-07-20T08:31:05;21.55;61.68
65766;SHT31;52915;53.718;19.946;2023-07-20T08:36:11;21.70;60.39
65766;SHT31;52915;53.718;19.946;2023-07-20T08:41:15;21.73;60.27
65766;SHT31;52915;53.718;19.946;2023-07-20T08:46:20;22.25;59.67
65766;SHT31;52915;53.718;19.946;2023-07-20T08:51:26;22.54;56.08
65766;SHT31;52915;53.718;19.946;2023-07-20T08:56:32;22.83;54.08
65766;SHT31;52915;53.718;19.946;2023-07-20T09:01:39;23.04;53.25
65766;SHT31;52915;53.718;19.946;2023-07-20T09:06:44;23.36;51.95
65766;SHT31;52915;53.718;19.946;2023-07-20T09:11:49;23.50;50.13
65766;SHT31;52915;53.718;19.946;2023-07-20T09:16:54;23.65;49.97
65766;SHT31;52915;53.718;19.946;2023-07-20T09:21:59;23.71;50.33
65766;SHT31;52915;53.718;19.946;2023-07-20T09:27:04;24.15;51.51
65766;SHT31;52915;53.718;19.946;2023-07-20T09:32:08;24.09;51.01
65766;SHT31;52915;53.718;19.946;2023-07-20T09:37:27;23.96;51.53
65766;SHT31;52915;53.718;19.946;2023-07-20T09:42:31;23.52;51.10
65766;SHT31;52915;53.718;19.946;2023-07-20T09:47:37;23.34;52.81
65766;SHT31;52915;53.718;19.946;2023-07-20T09:52:42;23.52;53.04
65766;SHT31;52915;53.718;19.946;2023-07-20T09:57:50;24.18;52.62
65766;SHT31;52915;53.718;19.946;2023-07-20T10:02:56;24.40;51.82
65766;SHT31;52915;53.718;19.946;2023-07-20T10:08:05;24.25;49.46
65766;SHT31;52915;53.718;19.946;2023-07-20T10:13:22;24.22;50.32
65766;SHT31;52915;53.718;19.946;2023-07-20T10:18:34;24.30;50.15
65766;SHT31;52915;53.718;19.946;2023-07-20T10:24:07;24.03;49.74
65766;SHT31;52915;53.718;19.946;2023-07-20T10:29:14;23.93;49.34
65766;SHT31;52915;53.718;19.946;2023-07-20T10:34:19;23.66;49.70
65766;SHT31;52915;53.718;19.946;2023-07-20T10:39:26;23.68;49.81
65766;SHT31;52915;53.718;19.946;2023-07-20T10:44:34;23.76;48.99
65766;SHT31;52915;53.718;19.946;2023-07-20T10:50:01;23.69;48.85
65766;SHT31;52915;53.718;19.946;2023-07-20T10:55:15;23.48;49.84
65766;SHT31;52915;53.718;19.946;2023-07-20T11:00:21;23.41;50.90
65766;SHT31;52915;53.718;19.946;2023-07-20T11:05:31;23.57;51.60
65766;SHT31;52915;53.718;19.946;2023-07-20T11:10:44;23.75;50.56
65766;SHT31;52915;53.718;19.946;2023-07-20T11:16:00;23.64;49.44
65766;SHT31;52915;53.718;19.946;2023-07-20T11:21:08;23.90;49.18
65766;SHT31;52915;53.718;19.946;2023-07-20T11:26:13;24.03;48.40
65766;SHT31;52915;53.718;19.946;2023-07-20T11:31:17;24.17;49.51
65766;SHT31;52915;53.718;19.946;2023-07-20T11:36:22;24.38;49.46
65766;SHT31;52915;53.718;19.946;2023-07-20T11:41:29;24.36;49.48
65766;SHT31;52915;53.718;19.946;2023-07-20T11:46:33;24.46;50.07
65766;SHT31;52915;53.718;19.946;2023-07-20T11:51:39;24.57;49.47
65766;SHT31;52915;53.718;19.946;2023-07-20T11:56:43;25.06;48.21
65766;SHT31;52915;53.718;19.946;2023-07-20T12:01:51;25.15;47.70
65766;SHT31;52915;53.718;19.946;2023-07-20T12:06:56;25.11;47.88
65766;SHT31;52915;53.718;19.946;2023-07-20T12:12:00;24.95;47.67
65766;SHT31;52915;53.718;19.946;2023-07-20T12:17:15;25.13;47.63
65766;SHT31;52915;53.718;19.946;2023-07-20T12:22:20;25.09;47.35
65766;SHT31;52915;53.718;19.946;2023-07-20T12:27:27;24.90;46.99
65766;SHT31;52915;53.718;19.946;2023-07-20T12:32:32;24.59;47.86
65766;SHT31;52915;53.718;19.946;2023-07-20T12:37:37;24.26;48.50
65766;SHT31;52915;53.718;19.946;2023-07-20T12:42:41;23.71;48.81
65766;SHT31;52915;53.718;19.946;2023-07-20T12:47:45;22.75;52.35
65766;SHT31;52915;53.718;19.946;2023-07-20T12:52:49;21.64;53.03
65766;SHT31;52915;53.718;19.946;2023-07-20T12:57:54;20.57;56.75
65766;SHT31;52915;53.718;19.946;2023-07-20T13:02:58;19.67;60.71
65766;SHT31;52915;53.718;19.946;2023-07-20T13:08:05;18.80;63.22
65766;SHT31;52915;53.718;19.946;2023-07-20T13:13:12;18.20;65.04
65766;SHT31;52915;53.718;19.946;2023-07-20T13:18:16;17.88;66.57
65766;SHT31;52915;53.718;19.946;2023-07-20T13:23:21;17.58;68.75
65766;SHT31;52915;53.718;19.946;2023-07-20T13:28:26;17.51;69.68
65766;SHT31;52915;53.718;19.946;2023-07-20T13:33:30;17.53;70.50
65766;SHT31;52915;53.718;19.946;2023-07-20T13:38:39;17.65;70.81
65766;SHT31;52915;53.718;19.946;2023-07-20T13:43:43;17.71;70.16
65766;SHT31;52915;53.718;19.946;2023-07-20T13:48:48;17.80;69.91
65766;SHT31;52915;53.718;19.946;2023-07-20T13:53:58;17.76;70.24
65766;SHT31;52915;53.718;19.946;2023-07-20T13:59:22;17.68;70.71
65766;SHT31;52915;53.718;19.946;2023-07-20T14:04:27;17.53;71.08
65766;SHT31;52915;53.718;19.946;2023-07-20T14:09:32;17.43;71.26
65766;SHT31;52915;53.718;19.946;2023-07-20T14:14:36;17.61;71.64
65766;SHT31;52915;53.718;19.946;2023-07-20T14:19:40;17.87;71.95
65766;SHT31;52915;53.718;19.946;2023-07-20T14:24:45;18.50;71.57
65766;SHT31;52915;53.718;19.946;2023-07-20T14:29:50;18.88;70.79
65766;SHT31;52915;53.718;19.946;2023-07-20T14:34:54;19.34;70.51
65766;SHT31;52915;53.718;19.946;2023-07-20T14:39:58;19.90;69.87
65766;SHT31;52915;53.718;19.946;2023-07-20T14:45:03;20.34;68.07
65766;SHT31;52915;53.718;19.946;2023-07-20T14:50:10;20.68;67.76
65766;SHT31;52915;53.718;19.946;2023-07-20T14:55:18;21.05;66.96
65766;SHT31;52915;53.718;19.946;2023-07-20T15:00:27;21.32;66.26
65766;SHT31;52915;53.718;19.946;2023-07-20T15:05:33;21.41;65.86
65766;SHT31;52915;53.718;19.946;2023-07-20T15:10:49;21.28;64.92
65766;SHT31;52915;53.718;19.946;2023-07-20T15:15:53;21.24;64.75
65766;SHT31;52915;53.718;19.946;2023-07-20T15:20:59;20.99;65.54
65766;SHT31;52915;53.718;19.946;2023-07-20T15:26:03;21.29;65.22
65766;SHT31;52915;53.718;19.946;2023-07-20T15:31:09;22.40;62.99
65766;SHT31;52915;53.718;19.946;2023-07-20T15:36:13;23.44;59.85
65766;SHT31;52915;53.718;19.946;2023-07-20T15:41:18;24.05;58.47
65766;SHT31;52915;53.718;19.946;2023-07-20T15:46:43;24.51;56.25
65766;SHT31;52915;53.718;19.946;2023-07-20T15:51:52;24.43;55.40
65766;SHT31;52915;53.718;19.946;2023-07-20T15:57:01;24.60;55.28
65766;SHT31;52915;53.718;19.946;2023-07-20T16:02:05;24.95;54.47
65766;SHT31;52915;53.718;19.946;2023-07-20T16:07:11;25.08;54.34
65766;SHT31;52915;53.718;19.946;2023-07-20T16:12:15;24.97;54.53
65766;SHT31;52915;53.718;19.946;2023-07-20T16:17:19;23.98;56.49
65766;SHT31;52915;53.718;19.946;2023-07-20T16:22:24;23.65;56.60
65766;SHT31;52915;53.718;19.946;2023-07-20T16:27:28;23.71;56.17
65766;SHT31;52915;53.718;19.946;2023-07-20T16:32:33;23.82;56.06
65766;SHT31;52915;53.718;19.946;2023-07-20T16:37:38;23.96;56.24
65766;SHT31;52915;53.718;19.946;2023-07-20T16:42:42;24.09;56.06
65766;SHT31;52915;53.718;19.946;2023-07-20T16:47:49;23.96;55.08
65766;SHT31;52915;53.718;19.946;2023-07-20T16:52:53;23.77;55.24
65766;SHT31;52915;53.718;19.946;2023-07-20T16:57:58;23.49;55.34
65766;SHT31;52915;53.718;19.946;2023-07-20T17:03:02;23.33;55.69
65766;SHT31;52915;53.718;19.946;2023-07-20T17:08:08;23.02;55.76
65766;SHT31;52915;53.718;19.946;2023-07-20T17:13:16;22.67;56.34
65766;SHT31;52915;53.718;19.946;2023-07-20T17:18:23;22.21;57.42
65766;SHT31;52915;53.718;19.946;2023-07-20T17:23:27;21.49;58.98
65766;SHT31;52915;53.718;19.946;2023-07-20T17:28:37;20.79;60.94
65766;SHT31;52915;53.718;19.946;2023-07-20T17:33:44;20.36;62.22
65766;SHT31;52915;53.718;19.946;2023-07-20T17:38:48;20.07;63.25
65766;SHT31;52915;53.718;19.946;2023-07-20T17:43:52;19.88;64.09
65766;SHT31;52915;53.718;19.946;2023-07-20T17:48:56;19.67;64.91
65766;SHT31;52915;53.718;19.946;2023-07-20T17:54:01;19.54;65.50
65766;SHT31;52915;53.718;19.946;2023-07-20T17:59:07;19.45;66.30
65766;SHT31;52915;53.718;19.946;2023-07-20T18:04:12;19.33;66.81
65766;SHT31;52915;53.718;19.946;2023-07-20T18:09:16;19.19;67.50
65766;SHT31;52915;53.718;19.946;2023-07-20T18:14:23;18.98;68.40
65766;SHT31;52915;53.718;19.946;2023-07-20T18:19:32;18.83;69.01
65766;SHT31;52915;53.718;19.946;2023-07-20T18:24:36;18.77;69.07
65766;SHT31;52915;53.718;19.946;2023-07-20T18:29:41;18.70;68.83
65766;SHT31;52915;53.718;19.946;2023-07-20T18:34:49;18.60;68.85
65766;SHT31;52915;53.718;19.946;2023-07-20T18:39:54;18.35;69.25
65766;SHT31;52915;53.718;19.946;2023-07-20T18:44:58;18.10;69.79
65766;SHT31;52915;53.718;19.946;2023-07-20T18:50:02;17.98;70.15
65766;SHT31;52915;53.718;19.946;2023-07-20T18:55:07;17.92;70.45
65766;SHT31;52915;53.718;19.946;2023-07-20T19:00:12;17.82;71.13
65766;SHT31;52915;53.718;19.946;2023-07-20T19:05:20;17.66;71.89
65766;SHT31;52915;53.718;19.946;2023-07-20T19:10:25;17.55;72.35
65766;SHT31;52915;53.718;19.946;2023-07-20T19:15:52;17.25;73.36
65766;SHT31;52915;53.718;19.946;2023-07-20T19:20:59;17.06;73.93
65766;SHT31;52915;53.718;19.946;2023-07-20T19:26:05;16.85;74.53
65766;SHT31;52915;53.718;19.946;2023-07-20T19:31:11;16.76;74.71
65766;SHT31;52915;53.718;19.946;2023-07-20T19:36:15;16.82;74.79
65766;SHT31;52915;53.718;19.946;2023-07-20T19:41:19;16.89;74.68
65766;SHT31;52915;53.718;19.946;2023-07-20T19:46:23;16.90;74.51
65766;SHT31;52915;53.718;19.946;2023-07-20T19:51:27;16.85;74.38
65766;SHT31;52915;53.718;19.946;2023-07-20T19:56:31;16.74;74.46
65766;SHT31;52915;53.718;19.946;2023-07-20T20:01:38;16.72;74.47
65766;SHT31;52915;53.718;19.946;2023-07-20T20:06:46;16.44;75.28
65766;SHT31;52915;53.718;19.946;2023-07-20T20:11:53;16.26;75.88
65766;SHT31;52915;53.718;19.946;2023-07-20T20:16:57;16.14;76.35
65766;SHT31;52915;53.718;19.946;2023-07-20T20:22:02;16.09;76.50
65766;SHT31;52915;53.718;19.946;2023-07-20T20:27:09;16.05;76.43
65766;SHT31;52915;53.718;19.946;2023-07-20T20:32:15;16.06;76.42
65766;SHT31;52915;53.718;19.946;2023-07-20T20:37:20;15.98;76.56
65766;SHT31;52915;53.718;19.946;2023-07-20T20:42:29;15.89;76.64
65766;SHT31;52915;53.718;19.946;2023-07-20T20:47:34;15.80;76.64
65766;SHT31;52915;53.718;19.946;2023-07-20T20:52:41;15.87;76.31
65766;SHT31;52915;53.718;19.946;2023-07-20T20:57:45;15.96;76.04
65766;SHT31;52915;53.718;19.946;2023-07-20T21:02:51;15.98;75.96
65766;SHT31;52915;53.718;19.946;2023-07-20T21:07:56;15.95;75.70
65766;SHT31;52915;53.718;19.946;2023-07-20T21:13:03;15.89;75.66
65766;SHT31;52915;53.718;19.946;2023-07-20T21:18:07;15.87;75.60
65766;SHT31;52915;53.718;19.946;2023-07-20T21:23:12;15.84;75.61
65766;SHT31;52915;53.718;19.946;2023-07-20T21:28:16;15.76;75.72
65766;SHT31;52915;53.718;19.946;2023-07-20T21:33:24;15.65;75.80
65766;SHT31;52915;53.718;19.946;2023-07-20T21:38:29;15.52;76.04
65766;SHT31;52915;53.718;19.946;2023-07-20T21:43:34;15.34;76.46
65766;SHT31;52915;53.718;19.946;2023-07-20T21:48:38;15.26;76.61
65766;SHT31;52915;53.718;19.946;2023-07-20T21:53:44;15.20;76.63
65766;SHT31;52915;53.718;19.946;2023-07-20T21:58:48;15.07;76.87
65766;SHT31;52915;53.718;19.946;2023-07-20T22:03:52;14.96;77.15
65766;SHT31;52915;53.718;19.946;2023-07-20T22:08:57;14.86;77.29
65766;SHT31;52915;53.718;19.946;2023-07-20T22:14:01;14.80;77.35
65766;SHT31;52915;53.718;19.946;2023-07-20T22:19:05;14.75;77.43
65766;SHT31;52915;53.718;19.946;2023-07-20T22:24:10;14.68;77.57
65766;SHT31;52915;53.718;19.946;2023-07-20T22:29:14;14.61;77.72
65766;SHT31;52915;53.718;19.946;2023-07-20T22:34:18;14.58;77.86
65766;SHT31;52915;53.718;19.946;2023-07-20T22:39:23;14.51;78.08
65766;SHT31;52915;53.718;19.946;2023-07-20T22:44:27;14.44;78.21
65766;SHT31;52915;53.718;19.946;2023-07-20T22:49:32;14.29;78.32
65766;SHT31;52915;53.718;19.946;2023-07-20T22:54:37;14.17;78.68
65766;SHT31;52915;53.718;19.946;2023-07-20T22:59:41;14.11;78.95
65766;SHT31;52915;53.718;19.946;2023-07-20T23:04:45;14.12;79.15
65766;SHT31;52915;53.718;19.946;2023-07-20T23:09:50;14.14;79.17
65766;SHT31;52915;53.718;19.946;2023-07-20T23:14:53;14.11;79.21
65766;SHT31;52915;53.718;19.946;2023-07-20T23:19:58;14.07;79.28
65766;SHT31;52915;53.718;19.946;2023-07-20T23:25:02;14.03;79.40
65766;SHT31;52915;53.718;19.946;2023-07-20T23:30:07;14.00;79.55
65766;SHT31;52915;53.718;19.946;2023-07-20T23:35:13;13.96;79.71
65766;SHT31;52915;53.718;19.946;2023-07-20T23:40:20;13.91;79.81
65766;SHT31;52915;53.718;19.946;2023-07-20T23:45:24;13.85;79.96
65766;SHT31;52915;53.718;19.946;2023-07-20T23:50:29;13.78;80.09
65766;SHT31;52915;53.718;19.946;2023-07-20T23:55:33;13.75;80.14
